createdAt,value
2018-06-02T01:11:42.980Z,79.60
2018-06-02T01:14:11.823Z,79.70
2018-06-02T01:16:40.658Z,79.70
2018-06-02T01:19:09.503Z,79.50
2018-06-02T01:21:38.338Z,79.60
2018-06-02T01:26:36.643Z,79.70
2018-06-02T01:29:06.230Z,79.70
2018-06-02T01:31:35.073Z,79.60
2018-06-02T01:34:03.915Z,80.10
2018-06-02T01:36:32.747Z,80.60
2018-06-02T01:39:01.589Z,80.50
2018-06-02T01:41:30.426Z,80.80
2018-06-02T01:43:59.260Z,80.80
2018-06-02T01:46:28.096Z,81.20
2018-06-02T01:48:56.941Z,81.30
2018-06-02T01:51:25.780Z,81.00
2018-06-02T01:53:54.624Z,81.30
2018-06-02T01:56:23.475Z,81.40
2018-06-02T01:58:52.309Z,81.60
2018-06-02T02:01:21.204Z,81.70
2018-06-02T02:03:50.009Z,81.20
2018-06-02T02:06:18.847Z,81.00
2018-06-02T02:08:47.720Z,81.30
2018-06-02T02:11:16.511Z,81.40
2018-06-02T02:13:45.348Z,81.70
2018-06-02T02:16:14.924Z,81.80
2018-06-02T02:18:43.754Z,81.90
2018-06-02T02:21:12.598Z,82.00
2018-06-02T02:23:41.436Z,82.60
2018-06-02T02:26:11.011Z,81.80
2018-06-02T02:28:39.845Z,81.80
2018-06-02T02:31:08.688Z,81.80
2018-06-02T02:33:37.538Z,81.60
2018-06-02T02:36:06.374Z,81.30
2018-06-02T02:38:35.215Z,81.60
2018-06-02T02:41:04.069Z,81.60
2018-06-02T02:43:33.640Z,81.60
2018-06-02T02:46:02.474Z,81.60
2018-06-02T02:48:31.320Z,81.70
2018-06-02T02:51:00.158Z,81.60
2018-06-02T02:53:28.988Z,82.50
2018-06-02T02:55:57.832Z,81.90
2018-06-02T02:58:26.683Z,82.00
2018-06-02T03:00:55.533Z,82.00
2018-06-02T03:03:24.367Z,81.90
2018-06-02T03:05:53.222Z,81.90
2018-06-02T03:08:22.070Z,81.50
2018-06-02T03:10:50.923Z,81.60
2018-06-02T03:13:19.774Z,81.90
2018-06-02T03:15:48.619Z,82.20
2018-06-02T03:18:17.468Z,82.30
2018-06-02T03:20:46.302Z,82.20
2018-06-02T03:23:15.145Z,82.10
2018-06-02T03:25:43.987Z,82.20
2018-06-02T03:28:12.838Z,82.30
2018-06-02T03:30:41.687Z,82.70
2018-06-02T03:33:10.537Z,82.10
2018-06-02T03:35:39.373Z,81.80
2018-06-02T03:38:08.215Z,82.20
2018-06-02T03:40:37.071Z,82.00
2018-06-02T03:43:05.908Z,82.20
2018-06-02T03:45:35.492Z,82.50
2018-06-02T03:48:04.333Z,82.60
2018-06-02T03:50:33.185Z,82.50
2018-06-02T03:53:02.029Z,82.30
2018-06-02T03:55:30.871Z,82.60
2018-06-02T03:57:59.736Z,82.50
2018-06-02T04:00:28.573Z,82.30
2018-06-02T04:02:57.408Z,82.60
2018-06-02T04:05:26.238Z,83.00
2018-06-02T04:07:55.827Z,82.30
2018-06-02T04:10:24.657Z,82.30
2018-06-02T04:12:53.500Z,82.60
2018-06-02T04:15:22.346Z,82.30
2018-06-02T04:17:51.187Z,82.20
2018-06-02T04:20:20.046Z,82.30
2018-06-02T04:22:48.882Z,82.20
2018-06-02T04:25:18.455Z,82.20
2018-06-02T04:27:47.316Z,82.40
2018-06-02T04:30:16.164Z,82.10
2018-06-02T04:32:45.004Z,81.90
2018-06-02T04:35:13.845Z,82.10
2018-06-02T04:37:42.689Z,82.20
2018-06-02T04:40:11.528Z,82.10
2018-06-02T04:42:40.361Z,82.10
2018-06-02T04:45:09.207Z,82.30
2018-06-02T04:47:38.059Z,82.30
2018-06-02T04:50:06.891Z,82.70
2018-06-02T04:52:35.730Z,82.80
2018-06-02T04:55:04.579Z,82.50
2018-06-02T04:57:33.421Z,82.20
2018-06-02T05:00:02.245Z,81.80
2018-06-02T05:02:31.090Z,82.20
2018-06-02T05:04:59.931Z,82.00
2018-06-02T05:07:28.984Z,82.30
2018-06-02T05:09:57.715Z,81.80
2018-06-02T05:12:26.557Z,82.00
2018-06-02T05:14:55.399Z,81.40
2018-06-02T05:17:24.231Z,81.80
2018-06-02T05:19:53.084Z,81.80
2018-06-02T05:22:21.915Z,81.70
2018-06-02T05:24:50.752Z,81.40
2018-06-02T05:27:19.591Z,81.90
2018-06-02T05:29:49.168Z,82.10
2018-06-02T05:32:18.016Z,82.00
2018-06-02T05:34:46.848Z,82.10
2018-06-02T05:37:15.696Z,81.40
2018-06-02T05:39:44.546Z,81.40
2018-06-02T05:42:13.378Z,81.70
2018-06-02T05:44:42.218Z,81.90
2018-06-02T05:47:11.060Z,81.50
2018-06-02T05:49:39.906Z,81.60
2018-06-02T05:52:08.762Z,81.30
2018-06-02T05:54:37.650Z,81.20
2018-06-02T05:57:06.434Z,80.60
2018-06-02T05:59:35.274Z,80.60
2018-06-02T06:02:04.857Z,80.60
2018-06-02T06:04:33.689Z,80.30
2018-06-02T06:07:02.519Z,80.60
2018-06-02T06:09:31.368Z,80.70
2018-06-02T06:12:00.216Z,80.80
2018-06-02T06:14:29.045Z,80.10
2018-06-02T06:16:57.883Z,80.30
2018-06-02T06:19:26.774Z,80.00
2018-06-02T06:21:55.627Z,80.10
2018-06-02T06:24:24.475Z,80.10
2018-06-02T06:26:53.339Z,79.90
2018-06-02T06:29:22.148Z,80.40
2018-06-02T06:31:51.732Z,79.50
2018-06-02T06:34:20.579Z,79.30
2018-06-02T06:36:49.411Z,79.30
2018-06-02T06:39:18.262Z,79.40
2018-06-02T06:41:47.115Z,79.50
2018-06-02T06:44:16.708Z,79.80
2018-06-02T06:46:45.564Z,80.20
2018-06-02T06:49:14.401Z,80.30
2018-06-02T06:51:43.245Z,79.70
2018-06-02T06:54:12.092Z,80.20
2018-06-02T06:56:41.691Z,79.60
2018-06-02T06:59:10.529Z,79.30
2018-06-02T07:01:39.376Z,79.40
2018-06-02T07:04:08.218Z,79.30
2018-06-02T07:06:37.069Z,78.50
2018-06-02T07:09:06.020Z,78.90
2018-06-02T07:11:34.869Z,78.20
2018-06-02T07:14:03.716Z,78.10
2018-06-02T07:16:33.299Z,78.40
2018-06-02T07:19:02.140Z,77.10
2018-06-02T07:21:30.998Z,76.90
2018-06-02T07:23:59.839Z,76.30
2018-06-02T07:26:28.682Z,76.40
2018-06-02T07:28:57.529Z,76.20
2018-06-02T07:31:26.677Z,75.00
2018-06-02T07:33:55.527Z,73.50
2018-06-02T07:36:24.375Z,74.00
2018-06-02T07:38:53.232Z,73.50
2018-06-02T07:41:22.839Z,73.20
2018-06-02T07:43:52.437Z,72.80
2018-06-02T07:46:22.024Z,73.80
2018-06-02T07:48:50.873Z,74.60
2018-06-02T07:51:19.725Z,74.80
2018-06-02T07:53:48.565Z,74.70
2018-06-02T07:56:17.405Z,74.70
2018-06-02T07:58:46.271Z,74.50
2018-06-02T08:01:15.147Z,72.90
2018-06-02T08:03:43.988Z,72.40
2018-06-02T08:06:12.849Z,71.70
2018-06-02T08:08:41.723Z,70.50
2018-06-02T08:11:10.561Z,69.70
2018-06-02T08:13:40.138Z,69.60
2018-06-02T08:16:09.001Z,68.80
2018-06-02T08:18:37.851Z,68.70
2018-06-02T08:21:06.707Z,68.50
2018-06-02T08:23:35.554Z,68.80
2018-06-02T08:26:04.443Z,68.00
2018-06-02T08:28:33.235Z,67.20
2018-06-02T08:31:02.077Z,64.90
2018-06-02T08:33:30.967Z,65.40
2018-06-02T08:35:59.785Z,66.10
2018-06-02T08:38:28.624Z,66.10
2018-06-02T08:40:57.475Z,67.40
2018-06-02T08:43:26.306Z,67.10
2018-06-02T08:45:55.155Z,66.40
2018-06-02T08:48:23.997Z,67.40
2018-06-02T08:50:53.577Z,65.90
2018-06-02T08:53:22.420Z,65.60
2018-06-02T08:55:51.256Z,65.40
2018-06-02T08:58:20.090Z,65.20
2018-06-02T09:00:48.932Z,65.20
2018-06-02T09:03:17.764Z,65.70
2018-06-02T09:05:47.352Z,65.40
2018-06-02T09:08:16.189Z,64.70
2018-06-02T09:10:45.036Z,64.80
2018-06-02T09:13:13.887Z,64.90
2018-06-02T09:15:42.731Z,64.00
2018-06-02T09:18:11.567Z,64.30
2018-06-02T09:20:40.408Z,63.40
2018-06-02T09:23:09.255Z,63.30
2018-06-02T09:25:38.827Z,62.30
2018-06-02T09:28:07.663Z,61.80
2018-06-02T09:30:36.504Z,61.80
2018-06-02T09:33:05.340Z,61.60
2018-06-02T09:35:34.191Z,61.90
2018-06-02T09:38:03.039Z,61.30
2018-06-02T09:40:32.625Z,60.90
2018-06-02T09:43:01.456Z,61.60
2018-06-02T09:45:30.304Z,60.90
2018-06-02T09:50:28.583Z,62.10
2018-06-02T09:52:57.440Z,61.10
2018-06-02T09:55:26.524Z,61.20
2018-06-02T09:57:55.140Z,61.40
2018-06-02T10:00:25.839Z,60.90
2018-06-02T10:02:54.683Z,61.70
2018-06-02T10:05:23.523Z,61.80
2018-06-02T10:07:52.369Z,61.30
2018-06-02T10:10:21.215Z,61.00
2018-06-02T10:12:50.061Z,60.70
2018-06-02T10:15:18.908Z,61.20
2018-06-02T10:17:47.749Z,60.70
2018-06-02T10:20:16.603Z,61.00
2018-06-02T10:22:45.447Z,61.10
2018-06-02T10:25:14.287Z,59.60
2018-06-02T10:27:43.137Z,59.50
2018-06-02T10:30:11.976Z,59.20
2018-06-02T10:32:40.817Z,59.40
2018-06-02T10:35:09.654Z,59.20
2018-06-02T10:37:38.495Z,59.00
2018-06-02T10:40:07.334Z,58.80
2018-06-02T10:42:36.924Z,60.00
2018-06-02T10:45:05.775Z,58.50
2018-06-02T10:47:34.611Z,59.00
2018-06-02T10:50:03.469Z,58.60
2018-06-02T10:52:32.314Z,58.00
2018-06-02T10:55:01.152Z,60.60
2018-06-02T10:57:30.007Z,59.30
2018-06-02T10:59:58.851Z,59.50
2018-06-02T11:02:27.708Z,60.50
2018-06-02T11:04:56.542Z,57.20
2018-06-02T11:07:25.387Z,56.00
2018-06-02T11:09:54.230Z,56.90
2018-06-02T11:12:23.076Z,56.50
2018-06-02T11:14:51.915Z,56.10
2018-06-02T11:17:20.760Z,56.60
2018-06-02T11:19:49.604Z,55.80
2018-06-02T11:22:18.436Z,55.30
2018-06-02T11:24:47.278Z,55.40
2018-06-02T11:27:16.120Z,55.80
2018-06-02T11:29:44.969Z,55.00
2018-06-02T11:32:13.808Z,53.40
2018-06-02T11:34:42.667Z,54.50
2018-06-02T11:37:11.507Z,55.10
2018-06-02T11:39:40.350Z,55.30
2018-06-02T11:42:09.192Z,54.80
2018-06-02T11:44:38.067Z,54.10
2018-06-02T11:47:07.653Z,53.40
2018-06-02T11:49:36.496Z,53.10
2018-06-02T11:52:05.346Z,53.70
2018-06-02T11:54:34.183Z,54.20
2018-06-02T11:57:03.913Z,54.00
2018-06-02T11:59:32.797Z,53.60
2018-06-02T12:02:01.638Z,54.30
2018-06-02T12:04:30.467Z,53.80
2018-06-02T12:06:59.869Z,52.30
2018-06-02T12:09:28.715Z,52.40
2018-06-02T12:11:57.558Z,52.70
2018-06-02T12:14:26.402Z,51.30
2018-06-02T12:16:55.989Z,52.50
2018-06-02T12:19:24.864Z,50.80
2018-06-02T12:21:53.745Z,52.00
2018-06-02T12:24:22.549Z,52.20
2018-06-02T12:26:51.396Z,52.30
2018-06-02T12:29:20.228Z,52.70
2018-06-02T12:31:49.077Z,52.10
2018-06-02T12:34:17.911Z,52.80
2018-06-02T12:36:46.754Z,54.20
2018-06-02T12:39:15.592Z,53.70
2018-06-02T12:41:44.443Z,53.90
2018-06-02T12:44:13.276Z,54.20
2018-06-02T12:46:42.882Z,54.60
2018-06-02T12:49:11.736Z,53.70
2018-06-02T12:51:40.573Z,53.20
2018-06-02T12:54:10.160Z,52.40
2018-06-02T12:56:39.014Z,52.70
2018-06-02T12:59:08.161Z,52.90
2018-06-02T13:01:37.764Z,53.00
2018-06-02T13:04:07.385Z,52.90
2018-06-02T13:06:36.240Z,52.70
2018-06-02T13:09:05.993Z,54.30
2018-06-02T13:11:34.830Z,52.90
2018-06-02T13:14:03.685Z,52.20
2018-06-02T13:16:32.536Z,51.00
2018-06-02T13:19:02.132Z,51.90
2018-06-02T13:21:31.016Z,52.10
2018-06-02T13:23:59.824Z,50.70
2018-06-02T13:26:28.667Z,50.90
2018-06-02T13:28:57.510Z,53.20
2018-06-02T13:31:26.347Z,55.90
2018-06-02T13:33:55.187Z,56.30
2018-06-02T13:36:24.015Z,55.90
2018-06-02T13:38:53.040Z,55.40
2018-06-02T13:41:22.015Z,55.20
2018-06-02T13:43:50.751Z,52.50
2018-06-02T13:46:19.592Z,53.00
2018-06-02T13:48:48.427Z,51.00
2018-06-02T13:51:17.282Z,51.30
2018-06-02T13:53:46.287Z,51.30
2018-06-02T13:56:15.871Z,50.70
2018-06-02T13:58:44.720Z,51.60
2018-06-02T14:01:13.560Z,52.30
2018-06-02T14:03:42.398Z,52.40
2018-06-02T14:06:11.243Z,52.50
2018-06-02T14:08:40.083Z,52.10
2018-06-02T14:11:08.949Z,52.30
2018-06-02T14:13:37.791Z,50.70
2018-06-02T14:16:06.635Z,48.10
2018-06-02T14:18:35.536Z,47.90
2018-06-02T14:21:04.343Z,46.40
2018-06-02T14:23:33.184Z,46.00
2018-06-02T14:26:02.784Z,45.20
2018-06-02T14:28:31.618Z,45.60
2018-06-02T14:31:00.464Z,46.10
2018-06-02T14:33:30.043Z,47.50
2018-06-02T14:35:58.891Z,48.10
2018-06-02T14:38:27.728Z,48.60
2018-06-02T14:40:56.580Z,49.10
2018-06-02T14:43:25.429Z,49.10
2018-06-02T14:45:54.281Z,50.70
2018-06-02T14:48:23.123Z,50.20
2018-06-02T14:50:51.968Z,49.90
2018-06-02T14:53:20.804Z,50.20
2018-06-02T14:55:49.680Z,49.10
2018-06-02T14:58:18.486Z,48.20
2018-06-02T15:00:47.333Z,48.00
2018-06-02T15:03:16.259Z,46.00
2018-06-02T15:05:45.065Z,46.40
2018-06-02T15:08:13.907Z,46.00
2018-06-02T15:10:42.754Z,45.70
2018-06-02T15:13:11.588Z,45.80
2018-06-02T15:15:41.165Z,44.40
2018-06-02T15:18:10.014Z,44.90
2018-06-02T15:20:38.855Z,44.70
2018-06-02T15:23:07.706Z,43.80
2018-06-02T15:25:36.556Z,43.10
2018-06-02T15:28:06.265Z,43.20
2018-06-02T15:30:34.976Z,41.90
2018-06-02T15:33:03.831Z,42.20
2018-06-02T15:35:33.401Z,42.30
2018-06-02T15:38:02.246Z,42.20
2018-06-02T15:40:31.092Z,42.60
2018-06-02T15:42:59.940Z,42.60
2018-06-02T15:45:28.774Z,43.70
2018-06-02T15:47:57.615Z,44.60
2018-06-02T15:50:26.459Z,45.20
2018-06-02T15:52:55.303Z,44.80
2018-06-02T15:55:24.152Z,44.90
2018-06-02T15:57:52.991Z,44.90
2018-06-02T16:00:21.825Z,45.30
2018-06-02T16:02:50.663Z,45.30
2018-06-02T16:05:19.524Z,44.50
2018-06-02T16:07:49.100Z,43.10
2018-06-02T16:10:17.933Z,42.90
2018-06-02T16:12:46.814Z,42.30
2018-06-02T16:15:15.635Z,41.10
2018-06-02T16:17:44.474Z,41.70
2018-06-02T16:20:13.321Z,43.20
2018-06-02T16:22:42.203Z,42.90
2018-06-02T16:25:11.745Z,43.70
2018-06-02T16:30:10.027Z,47.10
2018-06-02T16:32:38.870Z,48.70
2018-06-02T16:35:07.712Z,48.80
2018-06-02T16:37:36.555Z,47.70
2018-06-02T16:40:05.467Z,46.70
2018-06-02T16:42:34.230Z,45.90
2018-06-02T16:45:03.059Z,46.40
2018-06-02T16:47:31.902Z,46.50
2018-06-02T16:50:00.754Z,46.80
2018-06-02T16:52:29.602Z,47.20
2018-06-02T16:54:58.457Z,47.70
2018-06-02T16:57:28.098Z,46.70
2018-06-02T16:59:56.891Z,47.80
2018-06-02T17:02:25.729Z,49.00
2018-06-02T17:04:55.311Z,49.70
2018-06-02T17:07:24.143Z,51.00
2018-06-02T17:09:52.983Z,51.70
2018-06-02T17:12:21.826Z,52.30
2018-06-02T17:14:51.408Z,52.30
2018-06-02T17:17:21.015Z,53.30
2018-06-02T17:19:50.622Z,53.10
2018-06-02T17:22:19.442Z,53.70
2018-06-02T17:24:48.277Z,53.00
2018-06-02T17:27:17.120Z,53.60
2018-06-02T17:29:45.958Z,54.50
2018-06-02T17:32:14.813Z,54.70
2018-06-02T17:34:43.655Z,53.60
2018-06-02T17:37:12.495Z,53.20
2018-06-02T17:39:41.335Z,53.60
2018-06-02T17:42:10.193Z,53.70
2018-06-02T17:44:39.033Z,54.40
2018-06-02T17:47:08.717Z,54.60
2018-06-02T17:49:38.467Z,54.70
2018-06-02T17:52:07.313Z,54.60
2018-06-02T17:54:36.152Z,54.30
2018-06-02T17:57:04.999Z,54.30
2018-06-02T17:59:33.882Z,54.80
2018-06-02T18:02:02.693Z,55.20
2018-06-02T18:04:31.580Z,55.30
2018-06-02T18:07:00.373Z,56.30
2018-06-02T18:09:29.209Z,56.20
2018-06-02T18:11:58.062Z,56.70
2018-06-02T18:14:26.916Z,56.90
2018-06-02T18:16:55.739Z,57.20
2018-06-02T18:19:24.588Z,57.20
2018-06-02T18:21:53.423Z,56.90
2018-06-02T18:24:22.284Z,57.20
2018-06-02T18:26:51.859Z,57.80
2018-06-02T18:29:20.734Z,58.30
2018-06-02T18:31:49.581Z,58.20
2018-06-02T18:34:19.159Z,58.00
2018-06-02T18:36:48.037Z,57.80
2018-06-02T18:39:16.851Z,57.60
2018-06-02T18:41:45.687Z,57.80
2018-06-02T18:44:14.527Z,58.40
2018-06-02T18:46:44.123Z,58.70
2018-06-02T18:49:12.968Z,57.90
2018-06-02T18:51:41.815Z,58.30
2018-06-02T18:54:11.431Z,58.40
2018-06-02T18:56:41.022Z,58.80
2018-06-02T18:59:10.621Z,58.80
2018-06-02T19:01:39.457Z,58.60
2018-06-02T19:04:08.319Z,58.70
2018-06-02T19:06:37.163Z,59.00
2018-06-02T19:09:06.009Z,59.20
2018-06-02T19:11:34.846Z,59.20
2018-06-02T19:14:03.687Z,59.40
2018-06-02T19:16:32.523Z,59.50
2018-06-02T19:19:01.356Z,59.40
2018-06-02T19:21:30.935Z,60.00
2018-06-02T19:23:59.785Z,60.00
2018-06-02T19:26:28.608Z,60.30
2018-06-02T19:28:57.442Z,60.50
2018-06-02T19:31:26.292Z,60.80
2018-06-02T19:33:55.137Z,61.00
2018-06-02T19:36:23.991Z,61.10
2018-06-02T19:38:53.577Z,61.10
2018-06-02T19:41:22.466Z,61.20
2018-06-02T19:43:51.312Z,61.40
2018-06-02T19:46:20.175Z,61.70
2018-06-02T19:48:49.759Z,61.70
2018-06-02T19:51:18.916Z,61.80
2018-06-02T19:53:47.766Z,61.90
2018-06-02T19:56:16.714Z,61.80
2018-06-02T19:58:45.558Z,61.90
2018-06-02T20:01:14.413Z,62.70
2018-06-02T20:03:43.266Z,62.00
2018-06-02T20:06:12.118Z,62.00
2018-06-02T20:08:40.959Z,61.90
2018-06-02T20:11:12.522Z,62.00
2018-06-02T20:13:38.864Z,62.50
2018-06-02T20:18:37.129Z,62.80
2018-06-02T20:21:06.008Z,62.80
2018-06-02T20:23:35.561Z,63.20
2018-06-02T20:26:05.159Z,63.40
2018-06-02T20:28:34.005Z,63.50
2018-06-02T20:31:02.863Z,63.80
2018-06-02T20:33:32.447Z,64.20
2018-06-02T20:36:01.292Z,63.80
2018-06-02T20:38:30.140Z,64.00
2018-06-02T20:40:59.874Z,64.30
2018-06-02T20:43:28.715Z,64.60
2018-06-02T20:48:28.777Z,65.10
2018-06-02T20:50:57.615Z,65.10
2018-06-02T20:53:26.464Z,64.90
2018-06-02T20:55:55.305Z,65.20
2018-06-02T20:58:24.150Z,65.20
2018-06-02T21:00:52.998Z,65.60
2018-06-02T21:03:21.874Z,65.70
2018-06-02T21:05:51.279Z,66.00
2018-06-02T21:08:20.119Z,66.30
2018-06-02T21:10:48.968Z,66.80
2018-06-02T21:13:17.930Z,67.30
2018-06-02T21:15:46.684Z,67.40
2018-06-02T21:18:15.519Z,67.50
2018-06-02T21:20:44.361Z,67.90
2018-06-02T21:23:13.222Z,68.30
2018-06-02T21:25:42.059Z,68.60
2018-06-02T21:28:10.912Z,68.60
2018-06-02T21:30:40.488Z,69.40
2018-06-02T21:33:09.376Z,69.10
2018-06-02T21:35:38.313Z,68.90
2018-06-02T21:38:07.159Z,69.20
2018-06-02T21:40:35.997Z,69.10
2018-06-02T21:43:04.860Z,69.30
2018-06-02T21:45:33.729Z,69.30
2018-06-02T21:48:02.540Z,69.50
2018-06-02T21:50:32.141Z,69.50
2018-06-02T21:53:00.971Z,69.70
2018-06-02T21:55:29.810Z,69.90
2018-06-02T21:57:58.651Z,70.00
2018-06-02T22:00:27.495Z,70.50
2018-06-02T22:02:56.325Z,70.40
2018-06-02T22:05:25.274Z,70.80
2018-06-02T22:07:54.130Z,70.70
2018-06-02T22:10:22.978Z,70.80
2018-06-02T22:12:52.550Z,71.00
2018-06-02T22:15:21.436Z,71.00
2018-06-02T22:17:50.310Z,71.80
2018-06-02T22:20:19.144Z,72.40
2018-06-02T22:22:47.982Z,72.50
2018-06-02T22:25:16.828Z,72.80
2018-06-02T22:27:45.686Z,72.50
2018-06-02T22:30:14.530Z,72.70
2018-06-02T22:32:43.375Z,72.40
2018-06-02T22:35:12.223Z,72.50
2018-06-02T22:37:41.063Z,72.70
2018-06-02T22:40:09.915Z,72.70
2018-06-02T22:42:38.759Z,72.60
2018-06-02T22:45:08.352Z,72.70
2018-06-02T22:47:37.200Z,72.70
2018-06-02T22:50:06.072Z,73.00
2018-06-02T22:52:34.881Z,73.20
2018-06-02T22:55:03.787Z,73.50
2018-06-02T22:57:32.605Z,73.70
2018-06-02T23:00:01.459Z,73.50
2018-06-02T23:02:30.324Z,73.80
2018-06-02T23:04:59.218Z,74.00
2018-06-02T23:07:28.049Z,73.90
2018-06-02T23:09:56.901Z,73.90
2018-06-02T23:12:25.733Z,74.00
2018-06-02T23:14:54.583Z,74.20
2018-06-02T23:17:23.428Z,74.10
2018-06-02T23:19:53.003Z,73.90
2018-06-02T23:22:34.421Z,73.80
2018-06-02T23:25:03.285Z,74.10
2018-06-02T23:27:32.126Z,74.00
2018-06-02T23:30:00.974Z,73.90
2018-06-02T23:32:30.549Z,73.90
2018-06-02T23:34:59.409Z,73.70
2018-06-02T23:37:28.246Z,73.80
2018-06-02T23:42:26.503Z,74.00
2018-06-02T23:44:55.345Z,74.00
2018-06-02T23:47:24.933Z,73.70
2018-06-02T23:49:53.786Z,73.90
2018-06-02T23:52:22.625Z,74.70
2018-06-02T23:54:52.209Z,74.20
2018-06-02T23:57:21.044Z,74.00
2018-06-02T23:59:49.896Z,74.20
